Carbondale, Kentucky
Current Conditions -  °F | °C
As of 10:35 PM on Sunday 25 Jan 2015 (Local Time) from K2I0 Reporting Station
Drizzle Drizzle  
Wind Chill: 34°   Ceiling: 700
Heat Index: 42°   Visibility: 4mi
Dew Point: 41°   Wind: 14mph
Humidity: 99%   Direction: 330°NNW
Pressure: 29.76"   Gusts: 20mph
Location:  37.196°N, 87.6728°W
Report Text: K2I0 260435Z AUTO 33012G17KT 4SM DZ OVC007 05/05 A2976 RMK AO2 T00530051
Loading
Personal Weather Stations






























Interactive Weather Map New forecast layout! Learn more

10-Day Weather Forecast

Advertisements
Track Severe Weather on mobile